createdAt,value
2023-05-06T00:02:04.530Z,101045.90
2023-05-06T00:05:09.332Z,101043.02
2023-05-06T00:08:13.519Z,101041.97
2023-05-06T00:11:17.542Z,101039.98
2023-05-06T00:14:21.658Z,101037.57
2023-05-06T00:17:25.690Z,101035.90
2023-05-06T00:20:29.736Z,101028.40
2023-05-06T00:23:33.677Z,101025.77
2023-05-06T00:26:37.732Z,101022.97
2023-05-06T00:29:41.624Z,101022.77
2023-05-06T00:32:45.699Z,101020.24
2023-05-06T00:35:52.351Z,101024.47
2023-05-06T00:38:56.448Z,101027.16
2023-05-06T00:42:02.387Z,101024.77
2023-05-06T00:45:07.693Z,101024.96
2023-05-06T00:48:12.490Z,101023.67
2023-05-06T00:51:16.909Z,101029.81
2023-05-06T00:54:21.667Z,101034.70
2023-05-06T00:57:25.835Z,101035.82
2023-05-06T01:00:30.168Z,101036.83
2023-05-06T01:03:34.211Z,101033.58
2023-05-06T01:06:45.590Z,101035.96
2023-05-06T01:10:10.813Z,101030.68
2023-05-06T01:13:39.980Z,101033.83
2023-05-06T01:16:47.976Z,101035.96
2023-05-06T01:19:58.511Z,101036.11
2023-05-06T01:23:11.480Z,101036.16
2023-05-06T01:26:15.355Z,101035.29
2023-05-06T01:29:19.349Z,101042.88
2023-05-06T01:32:33.965Z,101045.69
2023-05-06T01:36:08.947Z,101048.02
2023-05-06T01:39:18.261Z,101048.61
2023-05-06T01:42:24.535Z,101053.36
2023-05-06T01:45:34.029Z,101053.08
2023-05-06T01:48:39.854Z,101054.73
2023-05-06T01:51:51.470Z,101057.34
2023-05-06T01:54:55.434Z,101055.08
2023-05-06T01:57:59.544Z,101050.86
2023-05-06T02:01:04.035Z,101049.83
2023-05-06T02:04:08.063Z,101050.48
2023-05-06T02:07:12.111Z,101046.65
2023-05-06T02:10:16.176Z,101044.02
2023-05-06T02:13:24.796Z,101039.39
2023-05-06T02:16:29.678Z,101038.64
2023-05-06T02:19:34.426Z,101035.60
2023-05-06T02:22:38.476Z,101033.08
2023-05-06T02:25:43.311Z,101032.26
2023-05-06T02:28:47.327Z,101027.48
2023-05-06T02:31:51.404Z,101025.39
2023-05-06T02:34:55.461Z,101027.69
2023-05-06T02:37:59.874Z,101024.45
2023-05-06T02:41:04.313Z,101017.37
2023-05-06T02:44:08.244Z,101019.45
2023-05-06T02:47:12.234Z,101017.15
2023-05-06T02:50:17.111Z,101017.16
2023-05-06T02:53:21.196Z,101013.98
2023-05-06T02:56:26.422Z,101016.39
2023-05-06T02:59:30.436Z,101012.98
2023-05-06T03:02:34.516Z,101010.17
2023-05-06T03:05:38.552Z,101012.48
2023-05-06T03:08:42.485Z,101013.86
2023-05-06T03:11:46.514Z,101014.08
2023-05-06T03:14:50.928Z,101014.59
2023-05-06T03:17:54.853Z,101013.54
2023-05-06T03:20:59.090Z,101013.71
2023-05-06T03:24:03.684Z,101016.63
2023-05-06T03:27:08.333Z,101026.54
2023-05-06T03:30:13.631Z,101031.38
2023-05-06T03:33:17.695Z,101045.94
2023-05-06T03:36:24.082Z,101045.83
2023-05-06T03:39:29.111Z,101045.55
2023-05-06T03:42:33.534Z,101038.30
2023-05-06T03:45:38.326Z,101041.31
2023-05-06T03:48:42.590Z,101045.54
2023-05-06T03:51:48.663Z,101047.06
2023-05-06T03:54:52.976Z,101049.61
2023-05-06T03:57:57.193Z,101051.40
2023-05-06T04:01:01.426Z,101051.35
2023-05-06T04:04:06.081Z,101046.89
2023-05-06T04:07:10.660Z,101044.14
2023-05-06T04:10:14.759Z,101043.04
2023-05-06T04:13:20.253Z,101039.63
2023-05-06T04:16:24.633Z,101036.48
2023-05-06T04:19:28.696Z,101034.27
2023-05-06T04:22:33.351Z,101035.98
2023-05-06T04:25:38.056Z,101036.69
2023-05-06T04:28:42.865Z,101036.77
2023-05-06T04:31:47.493Z,101032.95
2023-05-06T04:34:53.270Z,101031.55
2023-05-06T04:37:57.731Z,101037.20
2023-05-06T04:41:05.519Z,101034.55
2023-05-06T04:44:10.336Z,101040.05
2023-05-06T04:47:15.140Z,101031.55
2023-05-06T04:50:20.722Z,101023.55
2023-05-06T04:53:25.148Z,101024.23
2023-05-06T04:56:29.367Z,101021.20
2023-05-06T04:59:33.884Z,101017.02
2023-05-06T05:02:38.286Z,101019.58
2023-05-06T05:05:42.974Z,101022.43
2023-05-06T05:08:53.047Z,101024.83
2023-05-06T05:11:58.357Z,101020.61
2023-05-06T05:15:04.221Z,101017.42
2023-05-06T05:18:09.043Z,101021.02
2023-05-06T05:21:13.706Z,101018.77
2023-05-06T05:24:18.114Z,101015.79
2023-05-06T05:27:22.334Z,101018.39
2023-05-06T05:30:26.552Z,101018.39
2023-05-06T05:33:31.231Z,101020.70
2023-05-06T05:36:35.941Z,101009.66
2023-05-06T05:39:40.949Z,101009.77
2023-05-06T05:42:46.190Z,101008.13
2023-05-06T05:45:57.404Z,101009.73
2023-05-06T05:49:01.700Z,101007.00
2023-05-06T05:52:07.261Z,101005.86
2023-05-06T05:55:11.689Z,101006.40
2023-05-06T05:58:16.282Z,100998.70
2023-05-06T06:01:20.751Z,101002.63
2023-05-06T06:04:25.721Z,100996.26
2023-05-06T06:07:29.896Z,100993.45
2023-05-06T06:10:33.951Z,100994.45
2023-05-06T06:13:40.482Z,100993.55
2023-05-06T06:16:45.054Z,100998.61
2023-05-06T06:19:50.756Z,100996.54
2023-05-06T06:22:54.882Z,100996.88
2023-05-06T06:25:59.097Z,100994.59
2023-05-06T06:29:03.117Z,100995.02
2023-05-06T06:32:07.255Z,101000.19
2023-05-06T06:35:11.552Z,100999.66
2023-05-06T06:38:15.890Z,101000.11
2023-05-06T06:41:19.900Z,100994.71
2023-05-06T06:44:24.359Z,100997.82
2023-05-06T06:47:28.332Z,100997.86
2023-05-06T06:50:32.971Z,100994.70
2023-05-06T06:53:36.897Z,100985.98
2023-05-06T06:56:40.999Z,100984.27
2023-05-06T06:59:45.426Z,100985.20
2023-05-06T07:02:49.515Z,100980.21
2023-05-06T07:05:53.766Z,100974.35
2023-05-06T07:08:57.783Z,100972.64
2023-05-06T07:12:01.909Z,100964.40
2023-05-06T07:15:07.591Z,100958.81
2023-05-06T07:18:11.983Z,100957.68
2023-05-06T07:21:16.304Z,100957.16
2023-05-06T07:24:20.628Z,100955.60
2023-05-06T07:27:24.640Z,100955.95
2023-05-06T07:30:28.586Z,100947.80
2023-05-06T07:33:32.776Z,100953.39
2023-05-06T07:36:40.910Z,100948.52
2023-05-06T07:39:45.006Z,100942.84
2023-05-06T07:42:48.905Z,100946.35
2023-05-06T07:45:52.890Z,100941.86
2023-05-06T07:48:56.950Z,100940.70
2023-05-06T07:52:01.280Z,100937.38
2023-05-06T07:55:06.199Z,100933.06
2023-05-06T07:58:10.154Z,100935.16
2023-05-06T08:01:14.140Z,100942.55
2023-05-06T08:04:18.209Z,100939.35
2023-05-06T08:07:22.195Z,100947.89
2023-05-06T08:10:26.290Z,100951.30
2023-05-06T08:13:30.712Z,100951.67
2023-05-06T08:16:35.827Z,100954.41
2023-05-06T08:19:39.778Z,100954.30
2023-05-06T08:22:43.709Z,100951.45
2023-05-06T08:25:47.694Z,100950.83
2023-05-06T08:28:51.678Z,100954.24
2023-05-06T08:31:55.675Z,100955.09
2023-05-06T08:35:00.790Z,100956.28
2023-05-06T08:38:04.765Z,100960.14
2023-05-06T08:41:11.772Z,100955.81
2023-05-06T08:44:19.252Z,100960.53
2023-05-06T08:47:23.318Z,100963.75
2023-05-06T08:50:27.718Z,100966.66
2023-05-06T08:53:33.968Z,100960.26
2023-05-06T08:56:40.354Z,100957.88
2023-05-06T08:59:45.091Z,100959.05
2023-05-06T09:02:49.287Z,100955.33
2023-05-06T09:05:54.330Z,100951.58
2023-05-06T09:08:58.591Z,100953.30
2023-05-06T09:12:02.884Z,100958.66
2023-05-06T09:15:09.410Z,100963.92
2023-05-06T09:18:14.874Z,100965.97
2023-05-06T09:21:18.827Z,100959.58
2023-05-06T09:24:23.819Z,100958.27
2023-05-06T09:27:31.292Z,100950.55
2023-05-06T09:30:40.498Z,100942.55
2023-05-06T09:33:44.625Z,100937.29
2023-05-06T09:36:48.638Z,100931.72
2023-05-06T09:39:56.985Z,100923.27
2023-05-06T09:43:01.367Z,100916.55
2023-05-06T09:46:06.554Z,100916.98
2023-05-06T09:49:10.837Z,100913.70
2023-05-06T09:52:15.314Z,100913.30
2023-05-06T09:55:20.083Z,100915.48
2023-05-06T09:58:24.227Z,100919.83
2023-05-06T10:01:36.747Z,100918.64
2023-05-06T10:04:42.575Z,100918.73
2023-05-06T10:07:48.403Z,100912.34
2023-05-06T10:10:53.093Z,100910.07
2023-05-06T10:13:59.879Z,100907.92
2023-05-06T10:17:09.621Z,100905.70
2023-05-06T10:20:15.088Z,100906.97
2023-05-06T10:23:44.486Z,100909.55
2023-05-06T10:26:51.135Z,100910.59
2023-05-06T10:29:59.669Z,100902.42
2023-05-06T10:33:06.686Z,100901.91
2023-05-06T10:36:21.602Z,100892.52
2023-05-06T10:39:26.576Z,100884.50
2023-05-06T10:42:35.448Z,100875.59
2023-05-06T10:45:58.871Z,100865.27
2023-05-06T10:49:11.312Z,100866.91
2023-05-06T10:52:19.802Z,100858.30
2023-05-06T10:55:34.402Z,100856.30
2023-05-06T10:58:39.761Z,100851.42
2023-05-06T11:01:44.893Z,100847.51
2023-05-06T11:04:59.683Z,100843.73
2023-05-06T11:08:10.708Z,100841.09
2023-05-06T11:11:52.472Z,100845.75
2023-05-06T11:15:35.088Z,100840.92
2023-05-06T11:18:39.077Z,100841.65
2023-05-06T11:21:43.062Z,100847.67
2023-05-06T11:24:47.025Z,100850.64
2023-05-06T11:27:51.071Z,100851.67
2023-05-06T11:30:55.930Z,100853.24
2023-05-06T11:34:02.350Z,100855.25
2023-05-06T11:37:07.974Z,100855.47
2023-05-06T11:40:16.077Z,100864.09
2023-05-06T11:43:20.089Z,100864.17
2023-05-06T11:46:29.936Z,100865.11
2023-05-06T11:49:42.546Z,100868.73
2023-05-06T11:52:46.560Z,100870.27
2023-05-06T11:55:53.646Z,100869.63
2023-05-06T11:58:57.563Z,100868.31
2023-05-06T12:02:04.554Z,100873.02
2023-05-06T12:05:09.523Z,100875.98
2023-05-06T12:08:24.022Z,100879.77
2023-05-06T12:11:31.243Z,100878.83
2023-05-06T12:14:36.049Z,100883.14
2023-05-06T12:17:41.606Z,100879.70
2023-05-06T12:20:45.698Z,100883.60
2023-05-06T12:24:01.201Z,100889.41
2023-05-06T12:27:05.248Z,100884.23
2023-05-06T12:30:11.321Z,100886.61
2023-05-06T12:33:15.942Z,100879.85
2023-05-06T12:36:20.160Z,100883.77
2023-05-06T12:39:34.310Z,100877.03
2023-05-06T12:42:38.296Z,100878.20
2023-05-06T12:45:42.418Z,100875.92
2023-05-06T12:48:59.643Z,100872.62
2023-05-06T12:52:08.593Z,100863.15
2023-05-06T12:55:12.648Z,100853.16
2023-05-06T12:58:18.551Z,100847.89
2023-05-06T13:01:22.683Z,100841.17
2023-05-06T13:04:27.520Z,100833.11
2023-05-06T13:07:31.444Z,100828.95
2023-05-06T13:10:35.354Z,100822.91
2023-05-06T13:13:39.303Z,100820.31
2023-05-06T13:16:43.922Z,100818.11
2023-05-06T13:19:48.102Z,100818.36
2023-05-06T13:22:55.221Z,100806.77
2023-05-06T13:26:05.221Z,100808.25
2023-05-06T13:29:09.727Z,100800.66
2023-05-06T13:32:13.746Z,100796.30
2023-05-06T13:35:17.821Z,100797.14
2023-05-06T13:38:22.148Z,100796.42
2023-05-06T13:41:26.479Z,100792.34
2023-05-06T13:44:30.495Z,100792.02
2023-05-06T13:47:34.537Z,100791.27
2023-05-06T13:50:38.626Z,100792.79
2023-05-06T13:53:42.662Z,100791.23
2023-05-06T13:56:46.603Z,100790.11
2023-05-06T13:59:50.848Z,100789.23
2023-05-06T14:02:54.848Z,100789.29
2023-05-06T14:05:59.227Z,100783.18
2023-05-06T14:09:03.732Z,100782.34
2023-05-06T14:12:07.636Z,100776.36
2023-05-06T14:15:12.091Z,100767.30
2023-05-06T14:18:16.404Z,100764.96
2023-05-06T14:21:20.930Z,100762.48
2023-05-06T14:24:24.945Z,100758.84
2023-05-06T14:27:28.962Z,100764.69
2023-05-06T14:30:34.426Z,100765.59
2023-05-06T14:33:38.943Z,100764.89
2023-05-06T14:36:44.256Z,100766.82
2023-05-06T14:39:48.206Z,100766.16
2023-05-06T14:42:53.631Z,100775.95
2023-05-06T14:45:57.562Z,100776.34
2023-05-06T14:49:01.777Z,100781.93
2023-05-06T14:52:05.668Z,100788.22
2023-05-06T14:55:11.267Z,100788.79
2023-05-06T14:58:15.480Z,100784.98
2023-05-06T15:01:19.490Z,100790.60
2023-05-06T15:04:23.608Z,100789.55
2023-05-06T15:07:27.546Z,100784.34
2023-05-06T15:10:31.530Z,100780.98
2023-05-06T15:13:35.518Z,100779.70
2023-05-06T15:16:39.902Z,100782.80
2023-05-06T15:19:43.978Z,100777.71
2023-05-06T15:22:48.244Z,100773.14
2023-05-06T15:25:52.327Z,100773.33
2023-05-06T15:28:56.345Z,100769.70
2023-05-06T15:32:00.675Z,100771.67
2023-05-06T15:35:06.459Z,100771.23
2023-05-06T15:38:11.065Z,100768.58
2023-05-06T15:41:14.942Z,100772.71
2023-05-06T15:44:20.994Z,100774.66
2023-05-06T15:47:25.390Z,100783.09
2023-05-06T15:50:33.758Z,100793.80
2023-05-06T15:53:42.376Z,100796.94
2023-05-06T15:56:46.634Z,100802.85
2023-05-06T15:59:50.632Z,100805.24
2023-05-06T16:02:54.770Z,100804.11
2023-05-06T16:05:59.724Z,100807.91
2023-05-06T16:09:04.005Z,100811.27
2023-05-06T16:12:08.126Z,100809.28
2023-05-06T16:15:12.351Z,100808.03
2023-05-06T16:18:16.692Z,100813.40
2023-05-06T16:21:20.676Z,100817.07
2023-05-06T16:24:24.607Z,100815.30
2023-05-06T16:27:28.925Z,100822.54
2023-05-06T16:30:32.860Z,100827.42
2023-05-06T16:33:36.828Z,100829.25
2023-05-06T16:36:41.239Z,100833.05
2023-05-06T16:39:45.378Z,100830.15
2023-05-06T16:42:50.351Z,100827.65
2023-05-06T16:45:54.294Z,100826.04
2023-05-06T16:48:58.299Z,100825.28
2023-05-06T16:52:02.376Z,100825.81
2023-05-06T16:55:07.821Z,100830.00
2023-05-06T16:58:11.874Z,100829.46
2023-05-06T17:01:16.190Z,100830.09
2023-05-06T17:04:20.387Z,100831.45
2023-05-06T17:07:24.321Z,100841.64
2023-05-06T17:10:29.465Z,100844.39
2023-05-06T17:13:34.026Z,100849.17
2023-05-06T17:16:39.010Z,100855.63
2023-05-06T17:19:42.942Z,100853.59
2023-05-06T17:22:47.042Z,100850.54
2023-05-06T17:25:51.540Z,100848.44
2023-05-06T17:28:55.587Z,100845.17
2023-05-06T17:32:00.010Z,100836.31
2023-05-06T17:35:04.442Z,100829.91
2023-05-06T17:38:12.950Z,100830.52
2023-05-06T17:41:16.973Z,100826.45
2023-05-06T17:44:20.990Z,100829.98
2023-05-06T17:47:25.123Z,100827.81
2023-05-06T17:50:29.121Z,100829.81
2023-05-06T17:53:34.166Z,100828.10
2023-05-06T17:56:38.112Z,100831.52
2023-05-06T17:59:42.092Z,100839.17
2023-05-06T18:02:46.767Z,100844.65
2023-05-06T18:05:51.556Z,100847.85
2023-05-06T18:08:55.670Z,100853.09
2023-05-06T18:11:59.582Z,100854.73
2023-05-06T18:15:04.098Z,100853.35
2023-05-06T18:18:08.494Z,100855.77
2023-05-06T18:21:12.647Z,100861.27
2023-05-06T18:24:17.004Z,100863.87
2023-05-06T18:27:22.221Z,100869.67
2023-05-06T18:30:26.064Z,100869.13
2023-05-06T18:33:30.058Z,100876.78
2023-05-06T18:36:35.218Z,100876.02
2023-05-06T18:39:42.823Z,100876.71
2023-05-06T18:42:47.637Z,100875.44
2023-05-06T18:45:52.322Z,100874.87
2023-05-06T18:48:56.865Z,100882.61
2023-05-06T18:52:02.348Z,100884.34
2023-05-06T18:55:07.492Z,100885.99
2023-05-06T18:58:11.500Z,100885.13
2023-05-06T19:01:16.041Z,100882.88
2023-05-06T19:04:19.926Z,100885.73
2023-05-06T19:07:24.073Z,100887.61
2023-05-06T19:10:28.075Z,100888.84
2023-05-06T19:13:32.056Z,100889.92
2023-05-06T19:16:36.169Z,100887.84
2023-05-06T19:19:40.740Z,100889.86
2023-05-06T19:22:44.656Z,100890.40
2023-05-06T19:25:48.591Z,100890.29
2023-05-06T19:28:52.668Z,100885.78
2023-05-06T19:31:56.589Z,100884.48
2023-05-06T19:35:08.345Z,100878.98
2023-05-06T19:38:12.943Z,100877.06
2023-05-06T19:41:16.938Z,100874.41
2023-05-06T19:44:21.467Z,100869.45
2023-05-06T19:47:26.322Z,100869.39
2023-05-06T19:50:33.493Z,100869.06
2023-05-06T19:53:37.713Z,100872.08
2023-05-06T19:56:43.550Z,100865.98
2023-05-06T19:59:47.477Z,100870.77
2023-05-06T20:02:51.492Z,100865.31
2023-05-06T20:05:56.237Z,100864.20
2023-05-06T20:09:00.359Z,100867.55
2023-05-06T20:12:06.429Z,100867.95
2023-05-06T20:15:10.874Z,100866.20
2023-05-06T20:18:15.419Z,100867.35
2023-05-06T20:21:19.581Z,100873.81
2023-05-06T20:24:24.313Z,100876.42
2023-05-06T20:27:28.337Z,100879.35
2023-05-06T20:30:32.861Z,100876.98
2023-05-06T20:33:36.904Z,100875.05
2023-05-06T20:36:43.048Z,100870.59
2023-05-06T20:39:46.963Z,100870.38
2023-05-06T20:42:50.899Z,100872.10
2023-05-06T20:45:54.836Z,100872.27
2023-05-06T20:48:59.093Z,100869.20
2023-05-06T20:52:04.347Z,100870.06
2023-05-06T20:55:09.565Z,100875.07
2023-05-06T20:58:13.724Z,100874.63
2023-05-06T21:01:18.810Z,100873.32
2023-05-06T21:04:22.969Z,100878.79
2023-05-06T21:07:26.862Z,100879.23
2023-05-06T21:10:30.904Z,100876.25
2023-05-06T21:13:34.852Z,100877.67
2023-05-06T21:16:41.813Z,100870.48
2023-05-06T21:19:45.722Z,100870.05
2023-05-06T21:22:49.942Z,100874.55
2023-05-06T21:25:53.906Z,100875.83
2023-05-06T21:28:57.849Z,100876.56
2023-05-06T21:32:01.750Z,100879.92
2023-05-06T21:35:06.814Z,100877.41
2023-05-06T21:38:10.936Z,100878.29
2023-05-06T21:41:15.038Z,100876.84
2023-05-06T21:44:19.040Z,100880.48
2023-05-06T21:47:22.977Z,100886.31
2023-05-06T21:50:26.966Z,100886.42
2023-05-06T21:53:31.012Z,100883.29
2023-05-06T21:56:35.033Z,100883.15
2023-05-06T21:59:39.573Z,100886.23
2023-05-06T22:02:43.673Z,100886.55
2023-05-06T22:05:47.759Z,100887.44
2023-05-06T22:08:52.119Z,100885.90
2023-05-06T22:11:56.130Z,100888.70
2023-05-06T22:15:00.075Z,100887.16
2023-05-06T22:18:04.275Z,100891.96
2023-05-06T22:21:08.833Z,100892.73
2023-05-06T22:24:12.774Z,100891.59
2023-05-06T22:27:16.815Z,100895.36
2023-05-06T22:30:21.128Z,100894.38
2023-05-06T22:33:26.444Z,100895.37
2023-05-06T22:36:33.640Z,100896.36
2023-05-06T22:39:37.607Z,100896.09
2023-05-06T22:42:41.530Z,100892.69
2023-05-06T22:45:45.593Z,100891.77
2023-05-06T22:48:49.616Z,100891.70
2023-05-06T22:51:53.763Z,100889.13
2023-05-06T22:54:57.661Z,100890.02
2023-05-06T22:58:01.572Z,100892.21
2023-05-06T23:01:07.466Z,100892.09
2023-05-06T23:04:11.597Z,100886.60
2023-05-06T23:07:15.772Z,100891.16
2023-05-06T23:10:20.004Z,100889.64
2023-05-06T23:13:24.005Z,100888.77
2023-05-06T23:16:29.706Z,100890.33
2023-05-06T23:19:33.900Z,100895.39
2023-05-06T23:22:38.020Z,100893.70
2023-05-06T23:25:41.966Z,100893.36
2023-05-06T23:28:45.945Z,100893.65
2023-05-06T23:31:49.959Z,100892.05
2023-05-06T23:34:53.977Z,100893.91
2023-05-06T23:37:57.995Z,100896.61
2023-05-06T23:41:01.929Z,100898.04
2023-05-06T23:44:06.354Z,100899.70
2023-05-06T23:47:10.649Z,100896.77
2023-05-06T23:50:14.947Z,100900.02
2023-05-06T23:53:19.115Z,100899.14
2023-05-06T23:56:23.053Z,100902.83
2023-05-06T23:59:29.488Z,100901.35
